createdAt,value
2022-10-25T00:01:52.190Z,98.07
2022-10-25T00:06:51.253Z,98.35
2022-10-25T00:09:19.525Z,98.03
2022-10-25T00:11:47.820Z,98.21
2022-10-25T00:14:19.102Z,98.19
2022-10-25T00:16:47.526Z,97.57
2022-10-25T00:19:15.749Z,97.69
2022-10-25T00:21:44.037Z,97.83
2022-10-25T00:24:14.747Z,97.76
2022-10-25T00:26:43.042Z,97.74
2022-10-25T00:29:12.226Z,97.74
2022-10-25T00:31:40.643Z,98.07
2022-10-25T00:34:08.932Z,98.66
2022-10-25T00:36:37.371Z,98.91
2022-10-25T00:39:05.799Z,99.05
2022-10-25T00:41:36.462Z,99.60
2022-10-25T00:44:46.553Z,99.75
2022-10-25T00:47:27.869Z,99.36
2022-10-25T00:50:02.419Z,99.93
2022-10-25T00:52:37.225Z,100.00
2022-10-25T00:55:07.758Z,100.00
2022-10-25T00:57:43.521Z,99.91
2022-10-25T01:00:13.486Z,100.00
2022-10-25T01:02:41.881Z,99.53
2022-10-25T01:05:11.958Z,99.24
2022-10-25T01:07:40.634Z,98.47
2022-10-25T01:10:09.425Z,98.37
2022-10-25T01:12:38.992Z,98.45
2022-10-25T01:15:08.885Z,98.97
2022-10-25T01:17:49.149Z,98.49
2022-10-25T01:20:46.784Z,97.95
2022-10-25T01:23:53.018Z,98.65
2022-10-25T01:26:57.151Z,99.31
2022-10-25T01:30:05.910Z,99.82
2022-10-25T01:32:46.564Z,100.00
2022-10-25T01:35:24.078Z,99.73
2022-10-25T01:38:07.741Z,99.92
2022-10-25T01:40:48.184Z,99.95
2022-10-25T01:43:27.997Z,98.14
2022-10-25T01:46:05.380Z,96.98
2022-10-25T01:48:40.678Z,97.57
2022-10-25T01:51:12.685Z,97.26
2022-10-25T01:53:47.514Z,97.20
2022-10-25T01:56:24.930Z,97.63
2022-10-25T01:59:24.053Z,97.94
2022-10-25T02:02:04.190Z,98.41
2022-10-25T02:04:46.699Z,98.50
2022-10-25T02:07:24.632Z,98.08
2022-10-25T02:12:43.290Z,98.07
2022-10-25T02:15:18.078Z,98.25
2022-10-25T02:17:53.610Z,98.44
2022-10-25T02:20:25.715Z,98.53
2022-10-25T02:22:55.132Z,99.21
2022-10-25T02:25:23.840Z,99.03
2022-10-25T02:27:54.758Z,99.29
2022-10-25T02:30:23.172Z,99.64
2022-10-25T02:32:52.010Z,99.48
2022-10-25T02:35:21.900Z,99.24
2022-10-25T02:37:50.287Z,99.67
2022-10-25T02:44:38.254Z,99.70
2022-10-25T02:47:06.511Z,100.00
2022-10-25T02:49:34.734Z,100.00
2022-10-25T02:52:04.569Z,100.00
2022-10-25T02:54:32.786Z,100.00
2022-10-25T02:57:01.156Z,100.00
2022-10-25T02:59:29.606Z,100.00
2022-10-25T03:01:57.879Z,100.00
2022-10-25T03:04:26.227Z,100.00
2022-10-25T03:06:54.757Z,100.00
2022-10-25T03:09:24.582Z,100.00
2022-10-25T03:11:52.842Z,100.00
2022-10-25T03:14:21.071Z,100.00
2022-10-25T03:16:49.270Z,100.00
2022-10-25T03:19:17.599Z,100.00
2022-10-25T03:21:45.870Z,100.00
2022-10-25T03:24:14.181Z,100.00
2022-10-25T03:26:43.740Z,100.00
2022-10-25T03:29:12.125Z,100.00
2022-10-25T03:31:40.503Z,100.00
2022-10-25T03:34:08.838Z,100.00
2022-10-25T03:36:37.082Z,100.00
2022-10-25T03:39:05.473Z,100.00
2022-10-25T03:41:33.761Z,100.00
2022-10-25T03:44:03.546Z,100.00
2022-10-25T03:46:31.763Z,100.00
2022-10-25T03:48:59.996Z,100.00
2022-10-25T03:51:28.293Z,100.00
2022-10-25T03:53:56.516Z,100.00
2022-10-25T03:56:24.784Z,100.00
2022-10-25T03:58:53.347Z,100.00
2022-10-25T04:01:23.072Z,100.00
2022-10-25T04:03:51.454Z,100.00
2022-10-25T04:06:19.715Z,100.00
2022-10-25T04:08:47.975Z,100.00
2022-10-25T04:11:16.263Z,100.00
2022-10-25T04:13:44.471Z,100.00
2022-10-25T04:16:14.761Z,100.00
2022-10-25T04:18:47.828Z,100.00
2022-10-25T04:21:16.068Z,100.00
2022-10-25T04:23:44.376Z,100.00
2022-10-25T04:26:14.466Z,100.00
2022-10-25T04:28:42.744Z,100.00
2022-10-25T04:31:11.120Z,100.00
2022-10-25T04:33:39.346Z,100.00
2022-10-25T04:38:58.581Z,100.00
2022-10-25T04:41:26.995Z,100.00
2022-10-25T04:43:55.325Z,100.00
2022-10-25T04:46:24.022Z,100.00
2022-10-25T04:48:52.298Z,100.00
2022-10-25T04:51:22.238Z,100.00
2022-10-25T04:53:50.465Z,99.98
2022-10-25T04:56:18.747Z,100.00
2022-10-25T04:58:47.053Z,100.00
2022-10-25T05:01:18.589Z,100.00
2022-10-25T05:03:47.397Z,100.00
2022-10-25T05:06:18.132Z,100.00
2022-10-25T05:08:50.436Z,100.00
2022-10-25T05:11:21.680Z,100.00
2022-10-25T05:13:50.273Z,100.00
2022-10-25T05:16:23.271Z,100.00
2022-10-25T05:18:54.312Z,100.00
2022-10-25T05:21:23.177Z,100.00
2022-10-25T05:23:53.543Z,100.00
2022-10-25T05:26:23.818Z,100.00
2022-10-25T05:28:55.340Z,100.00
2022-10-25T05:31:26.073Z,100.00
2022-10-25T05:33:56.881Z,100.00
2022-10-25T05:36:26.276Z,100.00
2022-10-25T05:38:56.234Z,100.00
2022-10-25T05:41:24.569Z,100.00
2022-10-25T05:43:52.979Z,100.00
2022-10-25T05:46:23.282Z,99.67
2022-10-25T05:48:53.611Z,99.85
2022-10-25T05:51:34.786Z,99.70
2022-10-25T05:54:08.740Z,99.64
2022-10-25T05:56:38.249Z,99.73
2022-10-25T05:59:09.703Z,99.93
2022-10-25T06:01:40.303Z,100.00
2022-10-25T06:04:09.938Z,100.00
2022-10-25T06:06:40.329Z,100.00
2022-10-25T06:09:10.513Z,100.00
2022-10-25T06:11:40.162Z,100.00
2022-10-25T06:14:10.422Z,100.00
2022-10-25T06:16:39.172Z,100.00
2022-10-25T06:19:07.705Z,100.00
2022-10-25T06:21:36.778Z,100.00
2022-10-25T06:24:05.811Z,100.00
2022-10-25T06:26:35.625Z,100.00
2022-10-25T06:29:05.776Z,100.00
2022-10-25T06:31:34.758Z,100.00
2022-10-25T06:34:04.336Z,100.00
2022-10-25T06:36:32.738Z,100.00
2022-10-25T06:39:05.213Z,100.00
2022-10-25T06:41:37.955Z,100.00
2022-10-25T06:44:07.616Z,100.00
2022-10-25T06:49:27.547Z,100.00
2022-10-25T06:51:55.948Z,100.00
2022-10-25T06:54:25.460Z,100.00
2022-10-25T06:56:55.198Z,100.00
2022-10-25T06:59:23.629Z,100.00
2022-10-25T07:01:52.532Z,100.00
2022-10-25T07:04:20.983Z,100.00
2022-10-25T07:06:51.549Z,100.00
2022-10-25T07:09:23.468Z,100.00
2022-10-25T07:11:51.732Z,100.00
2022-10-25T07:14:21.488Z,100.00
2022-10-25T07:16:49.906Z,100.00
2022-10-25T07:19:18.220Z,100.00
2022-10-25T07:21:46.692Z,99.43
2022-10-25T07:24:15.201Z,100.00
2022-10-25T07:26:44.041Z,100.00
2022-10-25T07:29:12.313Z,99.30
2022-10-25T07:31:45.210Z,98.30
2022-10-25T07:34:15.388Z,96.37
2022-10-25T07:36:43.867Z,96.30
2022-10-25T07:39:12.276Z,97.12
2022-10-25T07:41:40.648Z,94.84
2022-10-25T07:44:14.516Z,95.50
2022-10-25T07:46:46.000Z,95.39
2022-10-25T07:49:14.873Z,94.55
2022-10-25T07:51:43.299Z,95.13
2022-10-25T07:54:11.516Z,95.63
2022-10-25T07:56:39.921Z,93.84
2022-10-25T07:59:08.365Z,93.72
2022-10-25T08:01:37.096Z,92.73
2022-10-25T08:04:06.946Z,93.21
2022-10-25T08:06:36.073Z,93.72
2022-10-25T08:09:14.331Z,93.35
2022-10-25T08:11:43.584Z,92.23
2022-10-25T08:14:11.898Z,92.19
2022-10-25T08:16:40.338Z,92.68
2022-10-25T08:19:10.135Z,91.96
2022-10-25T08:21:38.801Z,91.96
2022-10-25T08:24:08.046Z,91.43
2022-10-25T08:26:37.141Z,90.41
2022-10-25T08:29:05.773Z,90.73
2022-10-25T08:31:34.035Z,91.67
2022-10-25T08:34:02.481Z,92.76
2022-10-25T08:36:32.262Z,93.58
2022-10-25T08:39:00.970Z,91.69
2022-10-25T08:41:41.784Z,91.40
2022-10-25T08:44:24.070Z,91.53
2022-10-25T08:46:58.464Z,91.67
2022-10-25T08:49:35.732Z,91.13
2022-10-25T08:52:08.266Z,92.12
2022-10-25T08:54:40.617Z,93.37
2022-10-25T08:57:24.241Z,94.14
2022-10-25T08:59:55.566Z,91.96
2022-10-25T09:02:34.628Z,92.43
2022-10-25T09:05:03.516Z,93.97
2022-10-25T09:07:53.057Z,93.19
2022-10-25T09:10:35.675Z,93.04
2022-10-25T09:13:12.919Z,90.93
2022-10-25T09:15:54.883Z,92.00
2022-10-25T09:18:33.722Z,92.83
2022-10-25T09:21:15.586Z,94.10
2022-10-25T09:23:58.846Z,94.77
2022-10-25T09:26:42.273Z,94.92
2022-10-25T09:29:19.910Z,92.80
2022-10-25T09:31:55.121Z,93.26
2022-10-25T09:34:24.637Z,93.71
2022-10-25T09:37:00.472Z,91.43
2022-10-25T09:39:38.483Z,90.65
2022-10-25T09:42:16.111Z,92.31
2022-10-25T09:44:48.893Z,89.59
2022-10-25T09:47:31.123Z,90.48
2022-10-25T09:50:02.942Z,91.32
2022-10-25T09:52:39.559Z,89.12
2022-10-25T09:55:32.913Z,88.89
2022-10-25T09:58:02.232Z,88.74
2022-10-25T10:00:31.113Z,90.94
2022-10-25T10:02:59.527Z,90.84
2022-10-25T10:05:28.056Z,88.90
2022-10-25T10:07:56.457Z,87.94
2022-10-25T10:10:30.589Z,84.89
2022-10-25T10:13:03.416Z,84.50
2022-10-25T10:15:38.603Z,83.12
2022-10-25T10:18:29.238Z,83.62
2022-10-25T10:21:05.907Z,81.62
2022-10-25T10:23:39.098Z,82.62
2022-10-25T10:26:18.508Z,84.04
2022-10-25T10:28:49.730Z,82.11
2022-10-25T10:31:19.134Z,82.04
2022-10-25T10:33:52.043Z,84.05
2022-10-25T10:36:29.625Z,85.41
2022-10-25T10:39:22.222Z,83.75
2022-10-25T10:42:03.398Z,82.17
2022-10-25T10:44:34.830Z,82.23
2022-10-25T10:47:11.531Z,77.08
2022-10-25T10:49:42.508Z,75.68
2022-10-25T10:52:30.594Z,76.51
2022-10-25T10:55:01.075Z,74.79
2022-10-25T10:57:33.650Z,75.04
2022-10-25T11:00:02.865Z,76.07
2022-10-25T11:02:41.487Z,73.82
2022-10-25T11:05:25.631Z,75.55
2022-10-25T11:07:57.362Z,73.79
2022-10-25T11:10:32.093Z,72.92
2022-10-25T11:13:14.355Z,69.79
2022-10-25T11:16:21.939Z,70.31
2022-10-25T11:19:08.966Z,71.75
2022-10-25T11:22:14.525Z,68.35
2022-10-25T11:24:56.694Z,66.49
2022-10-25T11:27:39.169Z,65.25
2022-10-25T11:30:15.064Z,64.80
2022-10-25T11:33:42.942Z,63.49
2022-10-25T11:36:27.756Z,63.23
2022-10-25T11:39:09.728Z,63.20
2022-10-25T11:41:46.120Z,61.80
2022-10-25T11:44:49.947Z,62.04
2022-10-25T11:47:34.257Z,62.16
2022-10-25T11:50:19.784Z,62.08
2022-10-25T11:53:23.169Z,61.72
2022-10-25T11:55:56.973Z,62.16
2022-10-25T11:58:47.045Z,60.95
2022-10-25T12:01:34.291Z,63.14
2022-10-25T12:04:29.495Z,65.85
2022-10-25T12:07:06.933Z,67.20
2022-10-25T12:09:46.596Z,68.00
2022-10-25T12:12:40.852Z,68.05
2022-10-25T12:15:20.423Z,69.02
2022-10-25T12:17:49.800Z,69.63
2022-10-25T12:20:25.907Z,69.68
2022-10-25T12:22:58.643Z,70.50
2022-10-25T12:25:31.800Z,70.11
2022-10-25T12:28:07.550Z,70.07
2022-10-25T12:30:36.705Z,70.34
2022-10-25T12:33:16.666Z,70.84
2022-10-25T12:35:52.048Z,71.02
2022-10-25T12:38:28.886Z,71.35
2022-10-25T12:41:03.486Z,71.44
2022-10-25T12:43:38.290Z,71.83
2022-10-25T12:46:44.189Z,71.84
2022-10-25T12:49:37.350Z,71.23
2022-10-25T12:52:24.852Z,70.67
2022-10-25T12:55:38.767Z,70.12
2022-10-25T12:58:32.469Z,69.08
2022-10-25T13:01:15.004Z,68.26
2022-10-25T13:04:06.883Z,68.29
2022-10-25T13:06:36.866Z,67.52
2022-10-25T13:09:11.189Z,67.14
2022-10-25T13:11:43.710Z,66.86
2022-10-25T13:14:25.155Z,66.56
2022-10-25T13:16:53.596Z,67.08
2022-10-25T13:19:49.762Z,67.97
2022-10-25T13:22:37.427Z,67.83
2022-10-25T13:25:19.563Z,68.01
2022-10-25T13:28:33.973Z,68.32
2022-10-25T13:31:49.490Z,68.95
2022-10-25T13:34:48.111Z,69.54
2022-10-25T13:37:42.029Z,69.33
2022-10-25T13:40:25.403Z,70.05
2022-10-25T13:43:05.827Z,70.22
2022-10-25T13:45:43.001Z,69.73
2022-10-25T13:48:26.742Z,70.43
2022-10-25T13:50:57.055Z,70.08
2022-10-25T13:53:31.083Z,69.43
2022-10-25T13:56:07.549Z,69.04
2022-10-25T13:58:45.196Z,68.51
2022-10-25T14:01:56.560Z,68.04
2022-10-25T14:04:39.087Z,68.17
2022-10-25T14:07:48.564Z,66.84
2022-10-25T14:10:28.427Z,65.91
2022-10-25T14:13:12.070Z,64.62
2022-10-25T14:15:50.341Z,64.33
2022-10-25T14:18:22.852Z,63.12
2022-10-25T14:20:56.630Z,63.38
2022-10-25T14:23:29.850Z,63.29
2022-10-25T14:26:00.339Z,63.27
2022-10-25T14:28:32.038Z,62.17
2022-10-25T14:31:02.201Z,62.15
2022-10-25T14:33:33.821Z,62.03
2022-10-25T14:36:12.248Z,63.22
2022-10-25T14:38:53.069Z,62.81
2022-10-25T14:41:25.248Z,62.39
2022-10-25T14:43:55.876Z,62.69
2022-10-25T14:46:26.304Z,62.32
2022-10-25T14:48:57.264Z,62.24
2022-10-25T14:51:28.589Z,62.32
2022-10-25T14:54:01.772Z,62.70
2022-10-25T14:56:34.376Z,62.28
2022-10-25T14:59:06.316Z,62.12
2022-10-25T15:01:35.920Z,61.65
2022-10-25T15:04:04.857Z,61.90
2022-10-25T15:06:33.702Z,61.83
2022-10-25T15:12:18.396Z,60.76
2022-10-25T15:14:48.620Z,61.16
2022-10-25T15:17:25.549Z,61.13
2022-10-25T15:20:05.113Z,62.06
2022-10-25T15:22:43.858Z,61.99
2022-10-25T15:25:28.380Z,62.71
2022-10-25T15:27:56.769Z,62.77
2022-10-25T15:30:37.745Z,62.67
2022-10-25T15:33:12.844Z,63.44
2022-10-25T15:35:49.523Z,63.69
2022-10-25T15:38:19.192Z,63.76
2022-10-25T15:40:48.464Z,65.31
2022-10-25T15:43:17.120Z,64.59
2022-10-25T15:45:47.160Z,65.23
2022-10-25T15:48:20.412Z,66.10
2022-10-25T15:50:52.880Z,66.21
2022-10-25T15:53:21.520Z,66.25
2022-10-25T15:55:50.774Z,66.71
2022-10-25T15:58:19.638Z,67.00
2022-10-25T16:00:52.125Z,67.15
2022-10-25T16:03:24.128Z,67.38
2022-10-25T16:05:53.286Z,67.35
2022-10-25T16:08:21.663Z,67.56
2022-10-25T16:10:50.117Z,68.67
2022-10-25T16:13:28.266Z,69.17
2022-10-25T16:15:57.940Z,69.35
2022-10-25T16:18:26.818Z,69.35
2022-10-25T16:20:57.785Z,69.27
2022-10-25T16:23:26.490Z,69.75
2022-10-25T16:25:56.310Z,69.72
2022-10-25T16:30:54.109Z,69.79
2022-10-25T16:33:23.799Z,69.34
2022-10-25T16:35:52.214Z,69.84
2022-10-25T16:38:20.448Z,70.12
2022-10-25T16:40:48.984Z,70.46
2022-10-25T16:43:17.221Z,70.92
2022-10-25T16:45:45.730Z,71.13
2022-10-25T16:48:14.097Z,71.47
2022-10-25T16:50:43.935Z,71.90
2022-10-25T16:53:14.823Z,71.76
2022-10-25T16:55:43.213Z,71.35
2022-10-25T16:58:12.029Z,71.32
2022-10-25T17:00:40.518Z,71.63
2022-10-25T17:03:10.346Z,71.77
2022-10-25T17:05:39.754Z,71.83
2022-10-25T17:08:09.559Z,72.02
2022-10-25T17:10:42.408Z,72.39
2022-10-25T17:13:16.029Z,72.70
2022-10-25T17:15:44.540Z,72.60
2022-10-25T17:18:15.958Z,73.27
2022-10-25T17:20:44.562Z,73.31
2022-10-25T17:23:14.493Z,73.66
2022-10-25T17:25:43.211Z,73.80
2022-10-25T17:28:11.711Z,74.28
2022-10-25T17:30:43.085Z,74.58
2022-10-25T17:33:11.453Z,74.77
2022-10-25T17:35:42.602Z,74.94
2022-10-25T17:38:10.956Z,75.20
2022-10-25T17:40:41.025Z,75.47
2022-10-25T17:43:09.397Z,75.68
2022-10-25T17:45:37.658Z,75.95
2022-10-25T17:48:06.846Z,76.34
2022-10-25T17:50:40.858Z,76.63
2022-10-25T17:53:10.402Z,77.10
2022-10-25T17:55:41.194Z,77.28
2022-10-25T17:58:09.575Z,77.82
2022-10-25T18:00:37.892Z,77.92
2022-10-25T18:03:06.222Z,77.88
2022-10-25T18:05:34.516Z,78.72
2022-10-25T18:08:02.760Z,78.58
2022-10-25T18:10:34.144Z,78.24
2022-10-25T18:13:03.727Z,78.90
2022-10-25T18:15:33.387Z,79.40
2022-10-25T18:18:01.906Z,79.47
2022-10-25T18:20:30.148Z,79.61
2022-10-25T18:22:58.386Z,80.13
2022-10-25T18:25:26.971Z,80.16
2022-10-25T18:27:55.338Z,80.35
2022-10-25T18:30:24.957Z,80.60
2022-10-25T18:32:53.612Z,80.67
2022-10-25T18:35:22.217Z,80.55
2022-10-25T18:37:50.788Z,80.35
2022-10-25T18:40:19.477Z,80.85
2022-10-25T18:42:47.731Z,81.24
2022-10-25T18:45:16.229Z,81.37
2022-10-25T18:47:50.136Z,81.21
2022-10-25T18:50:18.611Z,81.38
2022-10-25T18:52:47.045Z,81.24
2022-10-25T18:55:15.685Z,80.42
2022-10-25T18:57:44.030Z,80.25
2022-10-25T19:00:14.734Z,80.28
2022-10-25T19:02:43.199Z,80.75
2022-10-25T19:05:13.001Z,81.13
2022-10-25T19:07:41.351Z,81.38
2022-10-25T19:10:10.304Z,81.75
2022-10-25T19:12:38.735Z,82.49
2022-10-25T19:15:08.588Z,82.66
2022-10-25T19:17:36.926Z,82.77
2022-10-25T19:20:07.501Z,82.86
2022-10-25T19:22:37.186Z,82.97
2022-10-25T19:25:06.605Z,82.95
2022-10-25T19:27:34.988Z,82.99
2022-10-25T19:30:03.369Z,83.20
2022-10-25T19:32:32.037Z,83.05
2022-10-25T19:35:00.317Z,83.34
2022-10-25T19:37:28.712Z,82.91
2022-10-25T19:39:59.068Z,82.87
2022-10-25T19:42:27.577Z,82.82
2022-10-25T19:44:55.874Z,82.87
2022-10-25T19:47:24.436Z,83.15
2022-10-25T19:49:52.659Z,83.62
2022-10-25T19:52:21.266Z,83.85
2022-10-25T19:54:50.705Z,83.48
2022-10-25T19:57:20.960Z,83.77
2022-10-25T19:59:49.815Z,83.27
2022-10-25T20:02:18.660Z,82.87
2022-10-25T20:04:47.601Z,82.61
2022-10-25T20:07:16.418Z,82.64
2022-10-25T20:09:44.766Z,82.99
2022-10-25T20:12:13.084Z,83.42
2022-10-25T20:14:42.917Z,83.00
2022-10-25T20:17:12.442Z,82.76
2022-10-25T20:19:40.709Z,82.86
2022-10-25T20:22:09.005Z,82.48
2022-10-25T20:24:37.383Z,82.30
2022-10-25T20:27:06.585Z,82.03
2022-10-25T20:29:34.982Z,82.13
2022-10-25T20:32:04.712Z,82.13
2022-10-25T20:34:35.102Z,82.58
2022-10-25T20:37:04.108Z,83.73
2022-10-25T20:39:32.488Z,84.08
2022-10-25T20:42:01.123Z,84.06
2022-10-25T20:44:29.364Z,83.91
2022-10-25T20:46:57.608Z,82.79
2022-10-25T20:49:27.260Z,82.88
2022-10-25T20:51:55.494Z,83.58
2022-10-25T20:54:23.796Z,83.94
2022-10-25T20:56:52.097Z,84.30
2022-10-25T20:59:20.342Z,84.52
2022-10-25T21:01:48.721Z,84.79
2022-10-25T21:04:25.879Z,85.31
2022-10-25T21:07:05.863Z,85.41
2022-10-25T21:09:34.120Z,85.61
2022-10-25T21:12:02.324Z,85.30
2022-10-25T21:14:30.612Z,85.58
2022-10-25T21:16:58.877Z,85.75
2022-10-25T21:19:27.234Z,85.80
2022-10-25T21:21:55.653Z,85.89
2022-10-25T21:24:25.355Z,85.99
2022-10-25T21:26:54.546Z,86.12
2022-10-25T21:29:22.910Z,86.23
2022-10-25T21:31:51.148Z,86.06
2022-10-25T21:34:19.404Z,86.17
2022-10-25T21:36:48.031Z,85.79
2022-10-25T21:39:20.548Z,86.04
2022-10-25T21:41:50.319Z,86.00
2022-10-25T21:44:19.263Z,86.32
2022-10-25T21:46:47.607Z,86.59
2022-10-25T21:49:15.962Z,86.41
2022-10-25T21:51:44.435Z,86.28
2022-10-25T21:54:13.281Z,86.11
2022-10-25T21:56:41.673Z,85.81
2022-10-25T21:59:11.263Z,85.46
2022-10-25T22:01:39.772Z,85.54
2022-10-25T22:04:08.094Z,85.57
2022-10-25T22:06:36.686Z,85.87
2022-10-25T22:09:06.115Z,85.64
2022-10-25T22:11:36.978Z,85.81
2022-10-25T22:14:11.834Z,86.21
2022-10-25T22:16:40.654Z,86.48
2022-10-25T22:19:14.204Z,85.81
2022-10-25T22:21:42.861Z,85.92
2022-10-25T22:24:12.924Z,85.94
2022-10-25T22:26:44.662Z,85.94
2022-10-25T22:29:15.424Z,85.77
2022-10-25T22:31:43.707Z,85.67
2022-10-25T22:34:12.231Z,85.66
2022-10-25T22:36:42.765Z,86.21
2022-10-25T22:39:11.424Z,86.21
2022-10-25T22:41:39.774Z,86.42
2022-10-25T22:44:08.150Z,86.83
2022-10-25T22:46:38.108Z,86.92
2022-10-25T22:49:09.546Z,86.61
2022-10-25T22:51:39.330Z,86.41
2022-10-25T22:54:08.350Z,86.56
2022-10-25T22:56:36.922Z,86.85
2022-10-25T22:59:07.290Z,86.79
2022-10-25T23:01:38.605Z,86.83
2022-10-25T23:04:09.193Z,86.80
2022-10-25T23:06:40.234Z,85.76
2022-10-25T23:09:10.400Z,85.27
2022-10-25T23:11:41.344Z,85.34
2022-10-25T23:14:14.713Z,85.67
2022-10-25T23:16:47.462Z,86.01
2022-10-25T23:19:16.018Z,86.06
2022-10-25T23:21:44.353Z,86.58
2022-10-25T23:24:12.701Z,86.34
2022-10-25T23:26:41.159Z,86.68
2022-10-25T23:29:12.065Z,86.52
2022-10-25T23:31:40.284Z,85.45
2022-10-25T23:34:11.230Z,85.82
2022-10-25T23:36:39.456Z,85.65
2022-10-25T23:39:09.349Z,85.65
2022-10-25T23:41:37.647Z,86.02
2022-10-25T23:44:06.190Z,85.97
2022-10-25T23:46:35.574Z,86.00
2022-10-25T23:49:04.048Z,85.89
2022-10-25T23:51:33.628Z,85.38
2022-10-25T23:54:01.846Z,84.92
2022-10-25T23:56:30.191Z,84.51
2022-10-25T23:58:58.425Z,84.39
